sensor_id;sensor_type;location;lat;lon;timestamp;temperature;humidity
10453;DHT22;5274;51.992;8.518;2022-12-20T00:00:16;7.80;1.00
10453;DHT22;5274;51.992;8.518;2022-12-20T00:02:41;7.70;20.50
10453;DHT22;5274;51.992;8.518;2022-12-20T00:05:07;7.80;1.00
10453;DHT22;5274;51.992;8.518;2022-12-20T00:07:33;7.70;1.00
10453;DHT22;5274;51.992;8.518;2022-12-20T00:09:58;7.70;1.00
10453;DHT22;5274;51.992;8.518;2022-12-20T00:12:24;7.70;46.30
10453;DHT22;5274;51.992;8.518;2022-12-20T00:14:49;7.70;55.20
10453;DHT22;5274;51.992;8.518;2022-12-20T00:17:15;7.70;80.20
10453;DHT22;5274;51.992;8.518;2022-12-20T00:19:44;7.70;99.90
10453;DHT22;5274;51.992;8.518;2022-12-20T00:22:10;7.80;99.90
10453;DHT22;5274;51.992;8.518;2022-12-20T00:24:36;7.90;99.90
10453;DHT22;5274;51.992;8.518;2022-12-20T00:27:01;8.00;99.90
10453;DHT22;5274;51.992;8.518;2022-12-20T00:29:27;8.10;99.90
10453;DHT22;5274;51.992;8.518;2022-12-20T00:31:53;8.10;94.70
10453;DHT22;5274;51.992;8.518;2022-12-20T00:34:18;8.10;96.20
10453;DHT22;5274;51.992;8.518;2022-12-20T00:36:44;8.10;99.90
10453;DHT22;5274;51.992;8.518;2022-12-20T00:39:09;8.10;99.90
10453;DHT22;5274;51.992;8.518;2022-12-20T00:41:35;8.10;99.90
10453;DHT22;5274;51.992;8.518;2022-12-20T00:44:02;8.20;99.90
10453;DHT22;5274;51.992;8.518;2022-12-20T00:46:28;8.10;99.90
10453;DHT22;5274;51.992;8.518;2022-12-20T00:48:54;8.20;99.90
10453;DHT22;5274;51.992;8.518;2022-12-20T00:51:24;8.20;99.90
10453;DHT22;5274;51.992;8.518;2022-12-20T00:53:50;8.20;90.50
10453;DHT22;5274;51.992;8.518;2022-12-20T00:56:16;8.20;43.30
10453;DHT22;5274;51.992;8.518;2022-12-20T00:58:42;8.20;99.90
10453;DHT22;5274;51.992;8.518;2022-12-20T01:01:34;8.20;99.90
10453;DHT22;5274;51.992;8.518;2022-12-20T01:04:00;8.30;99.90
10453;DHT22;5274;51.992;8.518;2022-12-20T01:06:27;8.20;15.90
10453;DHT22;5274;51.992;8.518;2022-12-20T01:08:53;8.30;99.90
10453;DHT22;5274;51.992;8.518;2022-12-20T01:11:25;8.30;48.30
10453;DHT22;5274;51.992;8.518;2022-12-20T01:13:52;8.40;30.60
10453;DHT22;5274;51.992;8.518;2022-12-20T01:16:20;8.40;1.00
10453;DHT22;5274;51.992;8.518;2022-12-20T01:18:47;8.40;97.40
10453;DHT22;5274;51.992;8.518;2022-12-20T01:21:15;8.50;1.00
10453;DHT22;5274;51.992;8.518;2022-12-20T01:23:41;8.50;1.00
10453;DHT22;5274;51.992;8.518;2022-12-20T01:26:10;8.40;1.00
10453;DHT22;5274;51.992;8.518;2022-12-20T01:28:38;8.50;12.10
10453;DHT22;5274;51.992;8.518;2022-12-20T01:31:08;8.50;1.00
10453;DHT22;5274;51.992;8.518;2022-12-20T01:33:35;8.50;1.00
10453;DHT22;5274;51.992;8.518;2022-12-20T01:36:03;8.50;31.10
10453;DHT22;5274;51.992;8.518;2022-12-20T01:38:29;8.50;22.10
10453;DHT22;5274;51.992;8.518;2022-12-20T01:40:55;8.50;29.30
10453;DHT22;5274;51.992;8.518;2022-12-20T01:43:22;8.50;1.00
10453;DHT22;5274;51.992;8.518;2022-12-20T01:45:49;8.50;1.00
10453;DHT22;5274;51.992;8.518;2022-12-20T01:48:23;8.60;14.90
10453;DHT22;5274;51.992;8.518;2022-12-20T01:50:50;8.60;1.00
10453;DHT22;5274;51.992;8.518;2022-12-20T01:53:17;8.60;1.00
10453;DHT22;5274;51.992;8.518;2022-12-20T01:55:45;8.60;1.00
10453;DHT22;5274;51.992;8.518;2022-12-20T01:58:13;8.60;1.00
10453;DHT22;5274;51.992;8.518;2022-12-20T02:00:40;8.60;34.30
10453;DHT22;5274;51.992;8.518;2022-12-20T02:03:10;8.70;1.00
10453;DHT22;5274;51.992;8.518;2022-12-20T02:05:38;8.70;1.00
10453;DHT22;5274;51.992;8.518;2022-12-20T02:08:05;8.80;1.00
10453;DHT22;5274;51.992;8.518;2022-12-20T02:16:02;8.70;1.00
10453;DHT22;5274;51.992;8.518;2022-12-20T02:18:40;8.70;1.00
10453;DHT22;5274;51.992;8.518;2022-12-20T02:32:11;8.80;1.00
10453;DHT22;5274;51.992;8.518;2022-12-20T02:34:40;8.80;1.00
10453;DHT22;5274;51.992;8.518;2022-12-20T02:37:07;8.80;1.00
10453;DHT22;5274;51.992;8.518;2022-12-20T02:39:33;8.80;1.00
10453;DHT22;5274;51.992;8.518;2022-12-20T02:42:06;8.80;1.00
10453;DHT22;5274;51.992;8.518;2022-12-20T02:44:34;8.80;1.00
10453;DHT22;5274;51.992;8.518;2022-12-20T02:47:24;8.80;1.00
10453;DHT22;5274;51.992;8.518;2022-12-20T02:49:52;8.80;1.00
10453;DHT22;5274;51.992;8.518;2022-12-20T02:52:22;8.80;1.00
10453;DHT22;5274;51.992;8.518;2022-12-20T02:54:51;8.80;1.00
10453;DHT22;5274;51.992;8.518;2022-12-20T02:57:21;8.90;1.00
10453;DHT22;5274;51.992;8.518;2022-12-20T02:59:59;8.90;99.90
10453;DHT22;5274;51.992;8.518;2022-12-20T03:02:28;8.90;99.90
10453;DHT22;5274;51.992;8.518;2022-12-20T03:05:14;9.00;99.90
10453;DHT22;5274;51.992;8.518;2022-12-20T03:07:40;9.00;99.90
10453;DHT22;5274;51.992;8.518;2022-12-20T03:10:06;9.10;99.90
10453;DHT22;5274;51.992;8.518;2022-12-20T03:12:31;9.10;99.90
10453;DHT22;5274;51.992;8.518;2022-12-20T03:14:57;9.10;99.80
10453;DHT22;5274;51.992;8.518;2022-12-20T03:17:23;9.10;99.90
10453;DHT22;5274;51.992;8.518;2022-12-20T03:19:48;9.10;23.60
10453;DHT22;5274;51.992;8.518;2022-12-20T03:22:14;9.10;11.00
10453;DHT22;5274;51.992;8.518;2022-12-20T03:24:39;9.20;13.20
10453;DHT22;5274;51.992;8.518;2022-12-20T03:27:05;9.20;1.00
10453;DHT22;5274;51.992;8.518;2022-12-20T03:29:30;9.20;1.00
10453;DHT22;5274;51.992;8.518;2022-12-20T03:31:56;9.20;1.00
10453;DHT22;5274;51.992;8.518;2022-12-20T03:34:21;9.20;1.00
10453;DHT22;5274;51.992;8.518;2022-12-20T03:36:47;9.20;1.00
10453;DHT22;5274;51.992;8.518;2022-12-20T03:39:14;9.20;1.00
10453;DHT22;5274;51.992;8.518;2022-12-20T03:41:39;9.20;1.00
10453;DHT22;5274;51.992;8.518;2022-12-20T03:44:05;9.20;1.00
10453;DHT22;5274;51.992;8.518;2022-12-20T03:46:30;9.20;1.00
10453;DHT22;5274;51.992;8.518;2022-12-20T03:48:56;9.20;1.00
10453;DHT22;5274;51.992;8.518;2022-12-20T03:51:22;9.20;1.00
10453;DHT22;5274;51.992;8.518;2022-12-20T03:53:47;9.20;1.00
10453;DHT22;5274;51.992;8.518;2022-12-20T03:56:13;9.20;1.00
10453;DHT22;5274;51.992;8.518;2022-12-20T03:58:38;9.20;1.00
10453;DHT22;5274;51.992;8.518;2022-12-20T04:01:25;9.20;1.00
10453;DHT22;5274;51.992;8.518;2022-12-20T04:03:51;9.20;1.00
10453;DHT22;5274;51.992;8.518;2022-12-20T04:06:17;9.20;1.00
10453;DHT22;5274;51.992;8.518;2022-12-20T04:08:44;9.20;1.00
10453;DHT22;5274;51.992;8.518;2022-12-20T04:11:09;9.20;1.00
10453;DHT22;5274;51.992;8.518;2022-12-20T04:13:45;9.30;1.00
10453;DHT22;5274;51.992;8.518;2022-12-20T04:16:12;9.30;1.00
10453;DHT22;5274;51.992;8.518;2022-12-20T04:18:38;9.30;1.00
10453;DHT22;5274;51.992;8.518;2022-12-20T04:21:03;9.20;1.00
10453;DHT22;5274;51.992;8.518;2022-12-20T04:23:32;9.30;47.90
10453;DHT22;5274;51.992;8.518;2022-12-20T04:25:57;9.20;99.90
10453;DHT22;5274;51.992;8.518;2022-12-20T04:28:23;9.20;99.90
10453;DHT22;5274;51.992;8.518;2022-12-20T04:30:48;9.20;99.90
10453;DHT22;5274;51.992;8.518;2022-12-20T04:33:14;9.20;99.90
10453;DHT22;5274;51.992;8.518;2022-12-20T04:35:39;9.20;1.00
10453;DHT22;5274;51.992;8.518;2022-12-20T04:38:05;9.20;1.00
10453;DHT22;5274;51.992;8.518;2022-12-20T04:40:30;9.20;1.00
10453;DHT22;5274;51.992;8.518;2022-12-20T04:42:56;9.10;1.00
10453;DHT22;5274;51.992;8.518;2022-12-20T04:45:21;9.10;1.00
10453;DHT22;5274;51.992;8.518;2022-12-20T04:47:47;9.10;1.00
10453;DHT22;5274;51.992;8.518;2022-12-20T04:50:12;9.10;1.00
10453;DHT22;5274;51.992;8.518;2022-12-20T04:52:38;9.10;1.00
10453;DHT22;5274;51.992;8.518;2022-12-20T04:55:22;9.10;1.00
10453;DHT22;5274;51.992;8.518;2022-12-20T04:57:48;9.10;34.50
10453;DHT22;5274;51.992;8.518;2022-12-20T05:00:14;9.10;4.00
10453;DHT22;5274;51.992;8.518;2022-12-20T05:02:40;9.00;17.10
10453;DHT22;5274;51.992;8.518;2022-12-20T05:05:05;9.00;27.90
10453;DHT22;5274;51.992;8.518;2022-12-20T05:07:31;9.10;58.10
10453;DHT22;5274;51.992;8.518;2022-12-20T05:09:57;9.00;99.90
10453;DHT22;5274;51.992;8.518;2022-12-20T05:12:22;9.00;54.80
10453;DHT22;5274;51.992;8.518;2022-12-20T05:14:48;9.00;57.10
10453;DHT22;5274;51.992;8.518;2022-12-20T05:17:13;9.00;65.80
10453;DHT22;5274;51.992;8.518;2022-12-20T05:19:39;9.10;23.20
10453;DHT22;5274;51.992;8.518;2022-12-20T05:22:04;9.20;1.00
10453;DHT22;5274;51.992;8.518;2022-12-20T05:24:48;9.10;1.00
10453;DHT22;5274;51.992;8.518;2022-12-20T05:27:32;9.10;1.00
10453;DHT22;5274;51.992;8.518;2022-12-20T05:29:58;9.00;1.00
10453;DHT22;5274;51.992;8.518;2022-12-20T05:32:24;9.00;1.00
10453;DHT22;5274;51.992;8.518;2022-12-20T05:34:49;9.10;1.00
10453;DHT22;5274;51.992;8.518;2022-12-20T05:37:15;9.00;1.00
10453;DHT22;5274;51.992;8.518;2022-12-20T05:39:40;9.00;1.00
10453;DHT22;5274;51.992;8.518;2022-12-20T05:42:06;9.00;1.00
10453;DHT22;5274;51.992;8.518;2022-12-20T05:44:32;9.00;1.00
10453;DHT22;5274;51.992;8.518;2022-12-20T05:46:58;8.90;1.00
10453;DHT22;5274;51.992;8.518;2022-12-20T05:49:24;8.90;98.20
10453;DHT22;5274;51.992;8.518;2022-12-20T05:51:49;8.90;99.90
10453;DHT22;5274;51.992;8.518;2022-12-20T05:54:15;8.80;99.90
10453;DHT22;5274;51.992;8.518;2022-12-20T05:56:40;8.80;99.90
10453;DHT22;5274;51.992;8.518;2022-12-20T05:59:06;8.80;99.90
10453;DHT22;5274;51.992;8.518;2022-12-20T06:01:31;8.80;99.90
10453;DHT22;5274;51.992;8.518;2022-12-20T06:03:57;8.90;99.90
10453;DHT22;5274;51.992;8.518;2022-12-20T06:06:23;8.90;99.90
10453;DHT22;5274;51.992;8.518;2022-12-20T06:08:49;8.80;99.90
10453;DHT22;5274;51.992;8.518;2022-12-20T06:11:14;8.80;1.00
10453;DHT22;5274;51.992;8.518;2022-12-20T06:13:40;8.80;99.90
10453;DHT22;5274;51.992;8.518;2022-12-20T06:16:06;8.80;99.90
10453;DHT22;5274;51.992;8.518;2022-12-20T06:18:31;8.70;99.90
10453;DHT22;5274;51.992;8.518;2022-12-20T06:20:57;8.70;1.00
10453;DHT22;5274;51.992;8.518;2022-12-20T06:23:23;8.70;1.00
10453;DHT22;5274;51.992;8.518;2022-12-20T06:25:48;8.70;1.00
10453;DHT22;5274;51.992;8.518;2022-12-20T06:28:14;8.70;1.00
10453;DHT22;5274;51.992;8.518;2022-12-20T06:30:42;8.60;1.00
10453;DHT22;5274;51.992;8.518;2022-12-20T06:33:07;8.60;1.00
10453;DHT22;5274;51.992;8.518;2022-12-20T06:35:33;8.60;1.00
10453;DHT22;5274;51.992;8.518;2022-12-20T06:37:58;8.60;1.00
10453;DHT22;5274;51.992;8.518;2022-12-20T06:40:24;8.60;1.00
10453;DHT22;5274;51.992;8.518;2022-12-20T06:42:49;8.60;1.00
10453;DHT22;5274;51.992;8.518;2022-12-20T06:45:15;8.60;1.00
10453;DHT22;5274;51.992;8.518;2022-12-20T06:47:41;8.60;1.00
10453;DHT22;5274;51.992;8.518;2022-12-20T06:50:07;8.60;1.00
10453;DHT22;5274;51.992;8.518;2022-12-20T06:52:33;8.60;99.90
10453;DHT22;5274;51.992;8.518;2022-12-20T06:54:58;8.60;99.90
10453;DHT22;5274;51.992;8.518;2022-12-20T06:57:24;8.60;99.90
10453;DHT22;5274;51.992;8.518;2022-12-20T06:59:49;8.60;99.90
10453;DHT22;5274;51.992;8.518;2022-12-20T07:02:15;8.50;99.90
10453;DHT22;5274;51.992;8.518;2022-12-20T07:04:40;8.40;99.90
10453;DHT22;5274;51.992;8.518;2022-12-20T07:07:07;8.40;99.90
10453;DHT22;5274;51.992;8.518;2022-12-20T07:09:32;8.40;99.90
10453;DHT22;5274;51.992;8.518;2022-12-20T07:11:58;8.40;99.90
10453;DHT22;5274;51.992;8.518;2022-12-20T07:14:24;8.40;99.90
10453;DHT22;5274;51.992;8.518;2022-12-20T07:16:49;8.30;99.90
10453;DHT22;5274;51.992;8.518;2022-12-20T07:19:15;8.30;99.90
10453;DHT22;5274;51.992;8.518;2022-12-20T07:21:41;8.20;99.90
10453;DHT22;5274;51.992;8.518;2022-12-20T07:24:07;8.20;99.90
10453;DHT22;5274;51.992;8.518;2022-12-20T07:26:33;8.20;99.90
10453;DHT22;5274;51.992;8.518;2022-12-20T07:28:59;8.20;99.90
10453;DHT22;5274;51.992;8.518;2022-12-20T07:31:24;8.10;99.90
10453;DHT22;5274;51.992;8.518;2022-12-20T07:33:50;8.10;99.90
10453;DHT22;5274;51.992;8.518;2022-12-20T07:36:15;8.10;99.90
10453;DHT22;5274;51.992;8.518;2022-12-20T07:38:41;8.10;99.90
10453;DHT22;5274;51.992;8.518;2022-12-20T07:41:08;8.20;99.90
10453;DHT22;5274;51.992;8.518;2022-12-20T07:43:34;8.20;99.90
10453;DHT22;5274;51.992;8.518;2022-12-20T07:45:59;8.20;99.90
10453;DHT22;5274;51.992;8.518;2022-12-20T07:48:25;8.20;99.90
10453;DHT22;5274;51.992;8.518;2022-12-20T07:50:52;8.20;99.90
10453;DHT22;5274;51.992;8.518;2022-12-20T07:53:20;8.20;99.90
10453;DHT22;5274;51.992;8.518;2022-12-20T07:55:47;8.20;99.90
10453;DHT22;5274;51.992;8.518;2022-12-20T07:58:13;8.20;99.90
10453;DHT22;5274;51.992;8.518;2022-12-20T08:00:41;8.20;99.90
10453;DHT22;5274;51.992;8.518;2022-12-20T08:03:29;8.20;99.90
10453;DHT22;5274;51.992;8.518;2022-12-20T08:05:59;8.30;99.90
10453;DHT22;5274;51.992;8.518;2022-12-20T08:08:28;8.30;99.90
10453;DHT22;5274;51.992;8.518;2022-12-20T08:10:54;8.30;99.90
10453;DHT22;5274;51.992;8.518;2022-12-20T08:13:20;8.20;99.90
10453;DHT22;5274;51.992;8.518;2022-12-20T08:15:45;8.30;99.90
10453;DHT22;5274;51.992;8.518;2022-12-20T08:18:11;8.30;99.90
10453;DHT22;5274;51.992;8.518;2022-12-20T08:20:36;8.40;60.70
10453;DHT22;5274;51.992;8.518;2022-12-20T08:23:03;8.40;1.00
10453;DHT22;5274;51.992;8.518;2022-12-20T08:25:28;8.40;1.00
10453;DHT22;5274;51.992;8.518;2022-12-20T08:27:54;8.40;1.00
10453;DHT22;5274;51.992;8.518;2022-12-20T08:30:20;8.40;1.00
10453;DHT22;5274;51.992;8.518;2022-12-20T08:32:45;8.50;1.00
10453;DHT22;5274;51.992;8.518;2022-12-20T08:35:11;8.50;1.00
10453;DHT22;5274;51.992;8.518;2022-12-20T08:37:37;8.50;1.00
10453;DHT22;5274;51.992;8.518;2022-12-20T08:40:03;8.50;1.00
10453;DHT22;5274;51.992;8.518;2022-12-20T08:42:29;8.50;1.00
10453;DHT22;5274;51.992;8.518;2022-12-20T08:44:54;8.50;1.00
10453;DHT22;5274;51.992;8.518;2022-12-20T08:47:20;8.60;1.00
10453;DHT22;5274;51.992;8.518;2022-12-20T08:49:45;8.70;1.00
10453;DHT22;5274;51.992;8.518;2022-12-20T08:52:11;8.70;99.90
10453;DHT22;5274;51.992;8.518;2022-12-20T08:54:37;8.80;99.90
10453;DHT22;5274;51.992;8.518;2022-12-20T08:57:02;8.80;99.90
10453;DHT22;5274;51.992;8.518;2022-12-20T08:59:28;8.90;31.40
10453;DHT22;5274;51.992;8.518;2022-12-20T09:01:53;8.90;1.00
10453;DHT22;5274;51.992;8.518;2022-12-20T09:04:20;8.90;12.40
10453;DHT22;5274;51.992;8.518;2022-12-20T09:06:46;8.90;1.00
10453;DHT22;5274;51.992;8.518;2022-12-20T09:09:11;9.00;1.00
10453;DHT22;5274;51.992;8.518;2022-12-20T09:11:37;9.00;1.00
10453;DHT22;5274;51.992;8.518;2022-12-20T09:14:03;9.00;1.00
10453;DHT22;5274;51.992;8.518;2022-12-20T09:16:31;9.10;99.90
10453;DHT22;5274;51.992;8.518;2022-12-20T09:18:58;9.10;99.90
10453;DHT22;5274;51.992;8.518;2022-12-20T09:21:24;9.10;99.90
10453;DHT22;5274;51.992;8.518;2022-12-20T09:23:50;9.10;99.90
10453;DHT22;5274;51.992;8.518;2022-12-20T09:26:17;9.10;99.90
10453;DHT22;5274;51.992;8.518;2022-12-20T09:28:43;9.10;85.30
10453;DHT22;5274;51.992;8.518;2022-12-20T09:31:11;9.20;98.20
10453;DHT22;5274;51.992;8.518;2022-12-20T09:33:38;9.20;1.00
10453;DHT22;5274;51.992;8.518;2022-12-20T09:36:04;9.20;1.00
10453;DHT22;5274;51.992;8.518;2022-12-20T09:38:30;9.20;1.00
10453;DHT22;5274;51.992;8.518;2022-12-20T09:41:00;9.30;1.00
10453;DHT22;5274;51.992;8.518;2022-12-20T09:43:27;9.30;99.90
10453;DHT22;5274;51.992;8.518;2022-12-20T09:46:00;9.40;99.90
10453;DHT22;5274;51.992;8.518;2022-12-20T09:48:32;9.40;99.90
10453;DHT22;5274;51.992;8.518;2022-12-20T09:57:02;9.40;99.90
10453;DHT22;5274;51.992;8.518;2022-12-20T09:59:33;9.50;99.90
10453;DHT22;5274;51.992;8.518;2022-12-20T10:01:59;9.50;99.90
10453;DHT22;5274;51.992;8.518;2022-12-20T10:04:26;9.50;1.00
10453;DHT22;5274;51.992;8.518;2022-12-20T10:13:01;9.60;1.00
10453;DHT22;5274;51.992;8.518;2022-12-20T10:15:18;9.60;1.00
10453;DHT22;5274;51.992;8.518;2022-12-20T10:23:13;9.80;1.00
10453;DHT22;5274;51.992;8.518;2022-12-20T10:25:42;9.80;99.90
10453;DHT22;5274;51.992;8.518;2022-12-20T10:28:16;9.80;1.00
10453;DHT22;5274;51.992;8.518;2022-12-20T10:30:42;9.80;99.90
10453;DHT22;5274;51.992;8.518;2022-12-20T10:33:20;9.80;99.90
10453;DHT22;5274;51.992;8.518;2022-12-20T10:35:46;9.90;1.00
10453;DHT22;5274;51.992;8.518;2022-12-20T10:38:13;9.90;99.90
10453;DHT22;5274;51.992;8.518;2022-12-20T10:43:15;9.90;99.90
10453;DHT22;5274;51.992;8.518;2022-12-20T10:45:42;9.90;99.90
10453;DHT22;5274;51.992;8.518;2022-12-20T10:48:29;9.90;99.90
10453;DHT22;5274;51.992;8.518;2022-12-20T10:53:31;9.90;99.90
10453;DHT22;5274;51.992;8.518;2022-12-20T10:56:28;9.90;99.90
10453;DHT22;5274;51.992;8.518;2022-12-20T10:58:58;9.90;99.90
10453;DHT22;5274;51.992;8.518;2022-12-20T11:01:31;9.90;71.90
10453;DHT22;5274;51.992;8.518;2022-12-20T11:04:01;9.90;99.90
10453;DHT22;5274;51.992;8.518;2022-12-20T11:06:47;9.90;99.90
10453;DHT22;5274;51.992;8.518;2022-12-20T11:12:14;10.00;99.90
10453;DHT22;5274;51.992;8.518;2022-12-20T11:14:42;9.90;99.90
10453;DHT22;5274;51.992;8.518;2022-12-20T11:17:31;10.00;1.00
10453;DHT22;5274;51.992;8.518;2022-12-20T11:28:33;10.10;1.00
10453;DHT22;5274;51.992;8.518;2022-12-20T11:33:51;10.20;1.00
10453;DHT22;5274;51.992;8.518;2022-12-20T11:39:20;10.20;1.00
10453;DHT22;5274;51.992;8.518;2022-12-20T11:42:04;10.20;1.00
10453;DHT22;5274;51.992;8.518;2022-12-20T11:44:59;10.30;1.00
10453;DHT22;5274;51.992;8.518;2022-12-20T11:50:46;10.20;1.00
10453;DHT22;5274;51.992;8.518;2022-12-20T11:55:53;10.30;1.00
10453;DHT22;5274;51.992;8.518;2022-12-20T11:58:32;10.40;1.00
10453;DHT22;5274;51.992;8.518;2022-12-20T12:01:14;10.40;99.90
10453;DHT22;5274;51.992;8.518;2022-12-20T12:03:49;10.40;99.90
10453;DHT22;5274;51.992;8.518;2022-12-20T12:06:28;10.40;99.90
10453;DHT22;5274;51.992;8.518;2022-12-20T12:11:40;10.50;1.00
10453;DHT22;5274;51.992;8.518;2022-12-20T12:14:14;10.50;99.90
10453;DHT22;5274;51.992;8.518;2022-12-20T12:16:44;10.50;99.90
10453;DHT22;5274;51.992;8.518;2022-12-20T12:19:12;10.50;99.90
10453;DHT22;5274;51.992;8.518;2022-12-20T12:21:43;10.60;99.90
10453;DHT22;5274;51.992;8.518;2022-12-20T12:24:23;10.60;38.10
10453;DHT22;5274;51.992;8.518;2022-12-20T12:26:50;10.60;99.90
10453;DHT22;5274;51.992;8.518;2022-12-20T12:29:17;10.60;99.90
10453;DHT22;5274;51.992;8.518;2022-12-20T12:32:12;10.60;99.90
10453;DHT22;5274;51.992;8.518;2022-12-20T12:35:10;10.60;99.90
10453;DHT22;5274;51.992;8.518;2022-12-20T12:38:14;10.60;99.90
10453;DHT22;5274;51.992;8.518;2022-12-20T12:46:43;10.60;99.90
10453;DHT22;5274;51.992;8.518;2022-12-20T12:49:14;10.70;99.90
10453;DHT22;5274;51.992;8.518;2022-12-20T12:51:49;10.70;99.90
10453;DHT22;5274;51.992;8.518;2022-12-20T12:54:17;10.70;99.90
10453;DHT22;5274;51.992;8.518;2022-12-20T12:56:46;10.60;1.00
10453;DHT22;5274;51.992;8.518;2022-12-20T12:59:23;10.70;1.00
10453;DHT22;5274;51.992;8.518;2022-12-20T13:05:00;10.80;99.90
10453;DHT22;5274;51.992;8.518;2022-12-20T13:07:40;10.80;99.90
10453;DHT22;5274;51.992;8.518;2022-12-20T13:18:00;10.70;99.90
10453;DHT22;5274;51.992;8.518;2022-12-20T13:20:41;10.70;1.00
10453;DHT22;5274;51.992;8.518;2022-12-20T13:25:34;10.60;1.00
10453;DHT22;5274;51.992;8.518;2022-12-20T13:30:41;10.60;1.00
10453;DHT22;5274;51.992;8.518;2022-12-20T13:34:00;10.70;1.00
10453;DHT22;5274;51.992;8.518;2022-12-20T13:44:25;10.80;99.90
10453;DHT22;5274;51.992;8.518;2022-12-20T13:47:00;10.70;99.90
10453;DHT22;5274;51.992;8.518;2022-12-20T13:49:31;10.80;27.90
10453;DHT22;5274;51.992;8.518;2022-12-20T13:54:40;10.90;99.90
10453;DHT22;5274;51.992;8.518;2022-12-20T13:57:07;11.00;99.90
10453;DHT22;5274;51.992;8.518;2022-12-20T13:59:35;11.00;99.90
10453;DHT22;5274;51.992;8.518;2022-12-20T14:02:03;11.10;99.90
10453;DHT22;5274;51.992;8.518;2022-12-20T14:04:41;11.10;99.90
10453;DHT22;5274;51.992;8.518;2022-12-20T14:07:13;11.20;30.70
10453;DHT22;5274;51.992;8.518;2022-12-20T14:09:42;11.20;99.90
10453;DHT22;5274;51.992;8.518;2022-12-20T14:12:16;11.20;31.50
10453;DHT22;5274;51.992;8.518;2022-12-20T14:14:46;11.30;1.00
10453;DHT22;5274;51.992;8.518;2022-12-20T14:17:26;11.30;1.00
10453;DHT22;5274;51.992;8.518;2022-12-20T14:22:28;11.30;1.00
10453;DHT22;5274;51.992;8.518;2022-12-20T14:24:54;11.20;99.90
10453;DHT22;5274;51.992;8.518;2022-12-20T14:27:20;11.20;1.00
10453;DHT22;5274;51.992;8.518;2022-12-20T14:29:46;11.00;80.90
10453;DHT22;5274;51.992;8.518;2022-12-20T14:32:18;11.00;35.70
10453;DHT22;5274;51.992;8.518;2022-12-20T14:34:45;11.20;1.00
10453;DHT22;5274;51.992;8.518;2022-12-20T14:37:32;11.20;1.00
10453;DHT22;5274;51.992;8.518;2022-12-20T14:42:35;11.20;99.90
10453;DHT22;5274;51.992;8.518;2022-12-20T14:47:58;11.20;99.90
10453;DHT22;5274;51.992;8.518;2022-12-20T14:50:35;11.20;99.90
10453;DHT22;5274;51.992;8.518;2022-12-20T14:53:02;11.10;99.90
10453;DHT22;5274;51.992;8.518;2022-12-20T14:55:37;11.10;1.00
10453;DHT22;5274;51.992;8.518;2022-12-20T15:01:24;11.20;1.00
10453;DHT22;5274;51.992;8.518;2022-12-20T15:03:56;11.20;1.00
10453;DHT22;5274;51.992;8.518;2022-12-20T15:06:43;11.10;96.80
10453;DHT22;5274;51.992;8.518;2022-12-20T15:09:09;11.10;1.00
10453;DHT22;5274;51.992;8.518;2022-12-20T15:11:35;11.00;1.00
10453;DHT22;5274;51.992;8.518;2022-12-20T15:14:04;10.90;99.90
10453;DHT22;5274;51.992;8.518;2022-12-20T15:16:34;10.80;1.00
10453;DHT22;5274;51.992;8.518;2022-12-20T15:19:01;10.70;99.90
10453;DHT22;5274;51.992;8.518;2022-12-20T15:21:31;10.50;1.00
10453;DHT22;5274;51.992;8.518;2022-12-20T15:23:59;10.40;99.90
10453;DHT22;5274;51.992;8.518;2022-12-20T15:26:26;10.20;1.00
10453;DHT22;5274;51.992;8.518;2022-12-20T15:28:52;10.10;1.00
10453;DHT22;5274;51.992;8.518;2022-12-20T15:31:21;10.00;1.00
10453;DHT22;5274;51.992;8.518;2022-12-20T15:33:49;9.90;1.00
10453;DHT22;5274;51.992;8.518;2022-12-20T15:36:23;9.80;15.10
10453;DHT22;5274;51.992;8.518;2022-12-20T15:38:51;9.80;91.60
10453;DHT22;5274;51.992;8.518;2022-12-20T15:41:33;9.70;99.90
10453;DHT22;5274;51.992;8.518;2022-12-20T15:44:12;9.60;99.90
10453;DHT22;5274;51.992;8.518;2022-12-20T15:46:39;9.60;99.90
10453;DHT22;5274;51.992;8.518;2022-12-20T15:49:04;9.60;99.90
10453;DHT22;5274;51.992;8.518;2022-12-20T15:51:35;9.60;99.90
10453;DHT22;5274;51.992;8.518;2022-12-20T15:54:04;9.60;99.90
10453;DHT22;5274;51.992;8.518;2022-12-20T15:56:30;9.50;99.90
10453;DHT22;5274;51.992;8.518;2022-12-20T15:58:55;9.50;99.90
10453;DHT22;5274;51.992;8.518;2022-12-20T16:01:24;9.60;99.90
10453;DHT22;5274;51.992;8.518;2022-12-20T16:03:50;9.50;99.90
10453;DHT22;5274;51.992;8.518;2022-12-20T16:06:16;9.50;99.90
10453;DHT22;5274;51.992;8.518;2022-12-20T16:08:41;9.50;99.90
10453;DHT22;5274;51.992;8.518;2022-12-20T16:11:20;9.40;99.90
10453;DHT22;5274;51.992;8.518;2022-12-20T16:13:46;9.40;99.90
10453;DHT22;5274;51.992;8.518;2022-12-20T16:16:19;9.40;99.90
10453;DHT22;5274;51.992;8.518;2022-12-20T16:18:45;9.60;99.90
10453;DHT22;5274;51.992;8.518;2022-12-20T16:23:45;9.30;99.90
10453;DHT22;5274;51.992;8.518;2022-12-20T16:26:14;9.30;99.90
10453;DHT22;5274;51.992;8.518;2022-12-20T16:28:41;9.20;99.90
10453;DHT22;5274;51.992;8.518;2022-12-20T16:31:30;9.20;99.90
10453;DHT22;5274;51.992;8.518;2022-12-20T16:33:58;9.20;99.90
10453;DHT22;5274;51.992;8.518;2022-12-20T16:36:25;9.20;99.90
10453;DHT22;5274;51.992;8.518;2022-12-20T16:38:51;9.20;99.90
10453;DHT22;5274;51.992;8.518;2022-12-20T16:41:20;9.20;99.90
10453;DHT22;5274;51.992;8.518;2022-12-20T16:43:47;9.20;99.90
10453;DHT22;5274;51.992;8.518;2022-12-20T16:46:15;9.10;99.90
10453;DHT22;5274;51.992;8.518;2022-12-20T16:48:41;9.20;99.90
10453;DHT22;5274;51.992;8.518;2022-12-20T16:51:26;9.10;99.90
10453;DHT22;5274;51.992;8.518;2022-12-20T16:53:54;9.10;99.90
10453;DHT22;5274;51.992;8.518;2022-12-20T16:56:20;9.10;99.90
10453;DHT22;5274;51.992;8.518;2022-12-20T16:58:46;9.10;99.90
10453;DHT22;5274;51.992;8.518;2022-12-20T17:01:16;9.00;99.90
10453;DHT22;5274;51.992;8.518;2022-12-20T17:03:43;9.00;99.90
10453;DHT22;5274;51.992;8.518;2022-12-20T17:06:10;9.00;99.90
10453;DHT22;5274;51.992;8.518;2022-12-20T17:08:37;9.00;99.90
10453;DHT22;5274;51.992;8.518;2022-12-20T17:11:14;9.00;99.90
10453;DHT22;5274;51.992;8.518;2022-12-20T17:13:42;9.00;99.90
10453;DHT22;5274;51.992;8.518;2022-12-20T17:16:09;9.00;99.90
10453;DHT22;5274;51.992;8.518;2022-12-20T17:18:38;8.90;99.90
10453;DHT22;5274;51.992;8.518;2022-12-20T17:23:42;8.90;99.90
10453;DHT22;5274;51.992;8.518;2022-12-20T17:26:12;9.00;99.90
10453;DHT22;5274;51.992;8.518;2022-12-20T17:28:38;8.90;99.90
10453;DHT22;5274;51.992;8.518;2022-12-20T17:33:42;8.90;99.90
10453;DHT22;5274;51.992;8.518;2022-12-20T17:36:07;8.90;99.90
10453;DHT22;5274;51.992;8.518;2022-12-20T17:38:33;8.90;99.90
10453;DHT22;5274;51.992;8.518;2022-12-20T17:40:58;8.90;99.90
10453;DHT22;5274;51.992;8.518;2022-12-20T17:43:24;8.90;99.90
10453;DHT22;5274;51.992;8.518;2022-12-20T17:45:49;8.90;99.90
10453;DHT22;5274;51.992;8.518;2022-12-20T17:48:15;8.80;99.90
10453;DHT22;5274;51.992;8.518;2022-12-20T17:50:40;8.80;99.90
10453;DHT22;5274;51.992;8.518;2022-12-20T17:53:07;8.80;99.90
10453;DHT22;5274;51.992;8.518;2022-12-20T17:55:32;8.80;99.90
10453;DHT22;5274;51.992;8.518;2022-12-20T17:57:58;8.70;99.90
10453;DHT22;5274;51.992;8.518;2022-12-20T18:00:29;8.80;99.90
10453;DHT22;5274;51.992;8.518;2022-12-20T18:02:55;8.80;99.90
10453;DHT22;5274;51.992;8.518;2022-12-20T18:05:23;8.80;99.90
10453;DHT22;5274;51.992;8.518;2022-12-20T18:07:54;8.80;99.90
10453;DHT22;5274;51.992;8.518;2022-12-20T18:10:22;8.80;99.90